Time;durP1;ratioP1;P1;durP2;ratioP2;P2;SDS_P1;SDS_P2;PMS_P1;PMS_P2;Temp;Humidity;BMP_temperature;BMP_pressure;BME280_temperature;BME280_humidity;BME280_pressure;Samples;Min_cycle;Max_cycle;Signal;HPM_P1;HPM_P2
2020/12/22 00:02:57;;;;;;;90.05;48.78;;;;;;;;;;6269374;28;20048;-71
2020/12/22 00:05:58;;;;;;;92.70;47.08;;;;;;;;;;6254003;28;20425;-72
2020/12/22 00:08:59;;;;;;;85.10;46.50;;;;;;;;;;6249398;28;20053;-72
2020/12/22 00:12:00;;;;;;;85.63;46.85;;;;;;;;;;6257070;28;20132;-72
2020/12/22 00:15:01;;;;;;;88.75;48.13;;;;;;;;;;6258630;28;20059;-73
2020/12/22 00:18:03;;;;;;;168.07;86.40;;;;;;;;;;6260609;28;20045;-74
2020/12/22 00:21:04;;;;;;;147.57;76.55;;;;;;;;;;6258013;28;20053;-72
2020/12/22 00:24:06;;;;;;;102.15;54.42;;;;;;;;;;6251945;28;20051;-72
2020/12/22 00:27:07;;;;;;;91.22;50.70;;;;;;;;;;6251705;28;20037;-73
2020/12/22 00:30:08;;;;;;;84.10;46.08;;;;;;;;;;6256359;28;20058;-72
2020/12/22 00:33:11;;;;;;;79.82;44.70;;;;;;;;;;6256915;28;20115;-71
2020/12/22 00:36:12;;;;;;;80.13;44.40;;;;;;;;;;6261303;28;20041;-71
2020/12/22 00:39:13;;;;;;;83.78;45.28;;;;;;;;;;6260085;28;20052;-71
2020/12/22 00:42:14;;;;;;;73.40;43.58;;;;;;;;;;6249347;28;20389;-71
2020/12/22 00:45:15;;;;;;;71.50;39.17;;;;;;;;;;6254336;28;20059;-71
2020/12/22 00:48:17;;;;;;;72.53;40.53;;;;;;;;;;6266769;28;20044;-72
2020/12/22 00:51:21;;;;;;;69.60;39.65;;;;;;;;;;6262079;28;20067;-71
2020/12/22 00:54:22;;;;;;;;;;;;;;;;;;6281662;28;20045;-72
2020/12/22 00:57:23;;;;;;;75.40;42.97;;;;;;;;;;6257813;28;20385;-71
2020/12/22 01:00:24;;;;;;;71.28;40.67;;;;;;;;;;6251775;28;20041;-72
2020/12/22 01:03:26;;;;;;;78.80;42.15;;;;;;;;;;6260575;28;20505;-72
2020/12/22 01:06:27;;;;;;;73.55;43.55;;;;;;;;;;6232132;28;20144;-71
2020/12/22 01:09:28;;;;;;;76.57;43.25;;;;;;;;;;6250013;28;20560;-71
2020/12/22 01:12:29;;;;;;;80.55;49.72;;;;;;;;;;6257780;28;20060;-72
2020/12/22 01:15:30;;;;;;;76.95;48.25;;;;;;;;;;6250732;28;20068;-71
2020/12/22 01:18:32;;;;;;;77.88;48.60;;;;;;;;;;6260004;28;20132;-72
2020/12/22 01:21:34;;;;;;;80.85;48.95;;;;;;;;;;6259543;28;20222;-72
2020/12/22 01:24:35;;;;;;;78.53;47.50;;;;;;;;;;6263033;28;20501;-72
2020/12/22 01:27:36;;;;;;;77.70;48.40;;;;;;;;;;6263212;28;20047;-72
2020/12/22 01:30:37;;;;;;;78.13;49.05;;;;;;;;;;6259171;28;20136;-71
2020/12/22 01:33:41;;;;;;;79.10;48.33;;;;;;;;;;6257479;28;20048;-72
2020/12/22 01:36:42;;;;;;;79.53;48.88;;;;;;;;;;6263430;28;20131;-72
2020/12/22 01:39:43;;;;;;;79.28;47.33;;;;;;;;;;6255268;28;20047;-71
2020/12/22 01:42:44;;;;;;;77.03;47.65;;;;;;;;;;6260926;28;20041;-71
2020/12/22 01:45:45;;;;;;;85.38;53.35;;;;;;;;;;6264782;28;20373;-71
2020/12/22 01:48:47;;;;;;;92.05;53.28;;;;;;;;;;6261795;28;20567;-71
2020/12/22 01:51:49;;;;;;;90.43;53.92;;;;;;;;;;6264339;28;20041;-71
2020/12/22 01:54:50;;;;;;;86.70;53.00;;;;;;;;;;6259027;28;20053;-71
2020/12/22 01:57:51;;;;;;;80.65;50.00;;;;;;;;;;6259943;28;20617;-71
2020/12/22 02:00:52;;;;;;;82.97;49.75;;;;;;;;;;6262007;28;20049;-71
2020/12/22 02:03:54;;;;;;;86.45;51.47;;;;;;;;;;6250009;28;20865;-71
2020/12/22 02:06:56;;;;;;;80.45;50.05;;;;;;;;;;6254598;28;20063;-71
2020/12/22 02:09:57;;;;;;;80.53;48.72;;;;;;;;;;6240985;28;20048;-71
2020/12/22 02:12:58;;;;;;;81.57;47.38;;;;;;;;;;6254260;28;20446;-71
2020/12/22 02:15:59;;;;;;;76.88;46.20;;;;;;;;;;6266913;28;20052;-71
2020/12/22 02:19:01;;;;;;;87.80;48.17;;;;;;;;;;6265596;28;20184;-72
2020/12/22 02:22:03;;;;;;;80.18;45.70;;;;;;;;;;6257580;28;20051;-71
2020/12/22 02:25:12;;;;;;;83.70;47.88;;;;;;;;;;6261267;28;20045;-71
2020/12/22 02:28:13;;;;;;;81.05;45.75;;;;;;;;;;6263443;28;20053;-71
2020/12/22 02:31:14;;;;;;;76.20;43.88;;;;;;;;;;6256911;28;20398;-71
2020/12/22 02:34:15;;;;;;;75.22;45.03;;;;;;;;;;6253832;28;20062;-71
2020/12/22 02:37:21;;;;;;;77.47;44.65;;;;;;;;;;6266880;28;20045;-70
2020/12/22 02:40:22;;;;;;;73.13;45.25;;;;;;;;;;6275895;28;20048;-72
2020/12/22 02:43:23;;;;;;;71.05;42.10;;;;;;;;;;6277692;28;20044;-73
2020/12/22 02:46:24;;;;;;;73.13;45.97;;;;;;;;;;6256364;28;20494;-73
2020/12/22 02:49:25;;;;;;;74.20;45.33;;;;;;;;;;6256950;28;20078;-72
2020/12/22 02:52:27;;;;;;;68.10;41.92;;;;;;;;;;6265196;28;20065;-73
2020/12/22 02:55:29;;;;;;;70.72;42.58;;;;;;;;;;6258886;28;20172;-72
2020/12/22 02:58:30;;;;;;;66.68;40.90;;;;;;;;;;6258672;28;20045;-72
2020/12/22 03:01:38;;;;;;;69.35;41.78;;;;;;;;;;6259478;28;20132;-74
2020/12/22 03:04:39;;;;;;;64.97;41.20;;;;;;;;;;6254677;28;20050;-73
2020/12/22 03:07:41;;;;;;;69.07;43.10;;;;;;;;;;6259804;28;20049;-73
2020/12/22 03:10:42;;;;;;;61.58;39.60;;;;;;;;;;6253284;28;20055;-73
2020/12/22 03:13:43;;;;;;;63.33;38.13;;;;;;;;;;6261705;28;20179;-72
2020/12/22 03:16:44;;;;;;;63.72;40.05;;;;;;;;;;6260420;28;20095;-73
2020/12/22 03:19:45;;;;;;;60.42;37.20;;;;;;;;;;6259403;28;20041;-73
2020/12/22 03:22:47;;;;;;;62.15;38.65;;;;;;;;;;6249142;28;20038;-72
2020/12/22 03:25:48;;;;;;;57.92;37.95;;;;;;;;;;6257996;28;20178;-71
2020/12/22 03:28:49;;;;;;;57.67;39.85;;;;;;;;;;6261701;28;20049;-72
2020/12/22 03:31:50;;;;;;;54.38;38.03;;;;;;;;;;6254101;28;20042;-72
2020/12/22 03:34:51;;;;;;;63.00;37.80;;;;;;;;;;6258636;28;20114;-72
2020/12/22 03:37:53;;;;;;;59.92;37.45;;;;;;;;;;6262560;28;20045;-72
2020/12/22 03:40:54;;;;;;;60.72;38.78;;;;;;;;;;6258291;28;20523;-71
2020/12/22 03:43:56;;;;;;;58.97;37.72;;;;;;;;;;6264743;28;20133;-71
2020/12/22 03:46:57;;;;;;;61.03;37.58;;;;;;;;;;6258812;28;20465;-71
2020/12/22 03:49:58;;;;;;;61.63;36.47;;;;;;;;;;6256786;28;20041;-72
2020/12/22 03:53:01;;;;;;;61.42;37.55;;;;;;;;;;6261031;28;20047;-71
2020/12/22 03:56:02;;;;;;;64.43;39.42;;;;;;;;;;6256046;28;20045;-72
2020/12/22 03:59:03;;;;;;;61.63;37.70;;;;;;;;;;6260953;28;20055;-71
2020/12/22 04:02:04;;;;;;;67.32;38.22;;;;;;;;;;6258670;28;20045;-71
2020/12/22 04:05:05;;;;;;;68.07;38.03;;;;;;;;;;6261434;28;20075;-72
2020/12/22 04:08:07;;;;;;;72.25;40.33;;;;;;;;;;6252170;28;20141;-71
2020/12/22 04:11:08;;;;;;;67.35;38.60;;;;;;;;;;6255226;28;20054;-72
2020/12/22 04:14:09;;;;;;;63.83;36.50;;;;;;;;;;6255695;28;20124;-72
2020/12/22 04:17:12;;;;;;;70.97;38.30;;;;;;;;;;6262659;28;20053;-72
2020/12/22 04:20:13;;;;;;;61.38;35.03;;;;;;;;;;6267272;28;20553;-72
2020/12/22 04:23:14;;;;;;;70.78;43.47;;;;;;;;;;6257206;28;20065;-71
2020/12/22 04:26:15;;;;;;;66.07;35.25;;;;;;;;;;6262315;28;20136;-72
2020/12/22 04:29:17;;;;;;;71.38;38.63;;;;;;;;;;6255283;28;20047;-71
2020/12/22 04:32:18;;;;;;;72.97;40.72;;;;;;;;;;6255162;28;20051;-72
2020/12/22 04:35:19;;;;;;;71.47;40.28;;;;;;;;;;6254292;28;20052;-71
2020/12/22 04:38:20;;;;;;;71.55;38.92;;;;;;;;;;6265266;28;20119;-71
2020/12/22 04:41:22;;;;;;;64.60;36.63;;;;;;;;;;6259839;28;20139;-71
2020/12/22 04:44:24;;;;;;;66.80;38.92;;;;;;;;;;6263649;28;20041;-71
2020/12/22 04:47:26;;;;;;;59.70;36.75;;;;;;;;;;6267654;28;20074;-72
2020/12/22 04:50:27;;;;;;;65.10;36.53;;;;;;;;;;6269308;28;20049;-71
2020/12/22 04:53:31;;;;;;;64.70;36.85;;;;;;;;;;6265684;28;20072;-71
2020/12/22 04:56:33;;;;;;;62.78;36.63;;;;;;;;;;6257508;28;20045;-71
2020/12/22 04:59:37;;;;;;;61.20;35.80;;;;;;;;;;6248463;28;20481;-72
2020/12/22 05:02:41;;;;;;;63.53;36.15;;;;;;;;;;6249974;28;20098;-72
2020/12/22 05:05:42;;;;;;;63.25;36.28;;;;;;;;;;6252344;28;20041;-72
2020/12/22 05:08:45;;;;;;;58.58;35.55;;;;;;;;;;6244207;28;20136;-72
2020/12/22 05:11:46;;;;;;;60.90;34.67;;;;;;;;;;6251484;28;20047;-71
2020/12/22 05:14:47;;;;;;;66.45;37.22;;;;;;;;;;6244986;28;20037;-71
2020/12/22 05:17:49;;;;;;;68.43;37.30;;;;;;;;;;6248863;28;20044;-72
2020/12/22 05:20:51;;;;;;;62.70;36.42;;;;;;;;;;6236895;28;20048;-72
2020/12/22 05:23:54;;;;;;;62.60;35.85;;;;;;;;;;6250336;28;20052;-71
2020/12/22 05:26:58;;;;;;;58.42;35.92;;;;;;;;;;6249660;28;20041;-71
2020/12/22 05:30:00;;;;;;;62.60;35.65;;;;;;;;;;6253524;28;20049;-72
2020/12/22 05:33:04;;;;;;;60.80;35.25;;;;;;;;;;6249733;28;20050;-72
2020/12/22 05:36:05;;;;;;;59.63;34.08;;;;;;;;;;6256368;28;20056;-71
2020/12/22 05:39:08;;;;;;;58.47;33.95;;;;;;;;;;6250664;28;20049;-71
2020/12/22 05:42:13;;;;;;;57.53;32.80;;;;;;;;;;6255066;28;20068;-71
2020/12/22 05:45:14;;;;;;;58.63;32.70;;;;;;;;;;6251465;28;20063;-71
2020/12/22 05:48:15;;;;;;;55.50;33.08;;;;;;;;;;6254086;28;20045;-72
2020/12/22 05:51:16;;;;;;;63.50;33.80;;;;;;;;;;6262730;28;20202;-71
2020/12/22 05:54:18;;;;;;;55.90;32.92;;;;;;;;;;6260616;28;20730;-72
2020/12/22 05:57:23;;;;;;;56.53;33.20;;;;;;;;;;6255887;28;20052;-72
2020/12/22 06:00:24;;;;;;;58.42;32.55;;;;;;;;;;6262203;28;20049;-72
2020/12/22 06:03:25;;;;;;;54.85;32.80;;;;;;;;;;6259565;28;20041;-71
2020/12/22 06:06:27;;;;;;;62.03;33.35;;;;;;;;;;6253725;28;20055;-71
2020/12/22 06:09:30;;;;;;;52.30;31.25;;;;;;;;;;6250481;28;20041;-71
2020/12/22 06:12:38;;;;;;;56.53;32.97;;;;;;;;;;6253055;28;20041;-71
2020/12/22 06:15:40;;;;;;;52.05;31.60;;;;;;;;;;6260466;28;20733;-72
2020/12/22 06:18:41;;;;;;;52.15;30.80;;;;;;;;;;6262110;28;20072;-71
2020/12/22 06:21:43;;;;;;;50.22;29.17;;;;;;;;;;5933331;28;10001047;-72
2020/12/22 06:24:46;;;;;;;54.58;30.77;;;;;;;;;;6259989;28;20431;-71
2020/12/22 06:27:48;;;;;;;53.95;31.42;;;;;;;;;;6260188;28;20055;-71
2020/12/22 06:30:49;;;;;;;56.58;32.28;;;;;;;;;;6260561;28;20049;-71
2020/12/22 06:33:51;;;;;;;56.15;32.58;;;;;;;;;;6260293;28;20059;-74
2020/12/22 06:36:59;;;;;;;58.90;32.95;;;;;;;;;;6265648;28;20136;-73
2020/12/22 06:40:01;;;;;;;59.78;33.10;;;;;;;;;;6263617;28;20033;-70
2020/12/22 06:43:02;;;;;;;56.38;31.67;;;;;;;;;;6255862;28;20088;-73
2020/12/22 06:46:03;;;;;;;57.55;30.50;;;;;;;;;;6256441;28;20459;-73
2020/12/22 06:49:05;;;;;;;57.60;32.55;;;;;;;;;;6255141;28;20045;-71
2020/12/22 06:52:34;;;;;;;56.65;31.23;;;;;;;;;;6264013;28;20057;-71
2020/12/22 06:55:49;;;;;;;56.22;32.45;;;;;;;;;;6253902;28;20493;-71
2020/12/22 06:58:50;;;;;;;55.95;30.98;;;;;;;;;;6248088;28;20052;-71
2020/12/22 07:01:52;;;;;;;43.50;26.90;;;;;;;;;;6259722;28;20052;-72
2020/12/22 07:04:53;;;;;;;43.38;26.17;;;;;;;;;;6257276;28;20122;-71
2020/12/22 07:07:55;;;;;;;36.72;25.58;;;;;;;;;;6256485;28;20041;-72
2020/12/22 07:10:57;;;;;;;37.90;25.25;;;;;;;;;;6263544;28;20128;-71
2020/12/22 07:13:59;;;;;;;40.42;25.80;;;;;;;;;;6262248;28;20639;-72
2020/12/22 07:17:00;;;;;;;42.30;25.95;;;;;;;;;;6255124;28;20046;-71
2020/12/22 07:20:03;;;;;;;40.08;24.95;;;;;;;;;;6261522;28;20505;-71
2020/12/22 07:23:05;;;;;;;40.30;26.30;;;;;;;;;;6264130;28;20040;-71
2020/12/22 07:26:07;;;;;;;37.73;23.87;;;;;;;;;;5901272;28;10001187;-72
2020/12/22 07:29:08;;;;;;;40.70;24.27;;;;;;;;;;6267252;28;20045;-72
2020/12/22 07:32:10;;;;;;;36.58;24.85;;;;;;;;;;6255452;28;20052;-71
2020/12/22 07:35:11;;;;;;;39.35;24.45;;;;;;;;;;6258656;28;20419;-71
2020/12/22 07:38:12;;;;;;;41.95;24.35;;;;;;;;;;6262011;28;20240;-72
2020/12/22 07:41:25;;;;;;;36.80;23.75;;;;;;;;;;6265403;28;20141;-72
2020/12/22 07:44:27;;;;;;;38.58;23.73;;;;;;;;;;6251009;28;20145;-72
2020/12/22 07:47:28;;;;;;;37.95;24.13;;;;;;;;;;5898844;28;10000491;-72
2020/12/22 07:50:29;;;;;;;35.95;23.52;;;;;;;;;;6248107;28;20060;-71
2020/12/22 07:53:30;;;;;;;36.15;23.05;;;;;;;;;;6251807;28;21051;-71
2020/12/22 07:56:34;;;;;;;34.70;22.13;;;;;;;;;;6259096;28;20059;-73
2020/12/22 07:59:35;;;;;;;32.22;21.95;;;;;;;;;;6252856;28;20053;-71
2020/12/22 08:02:36;;;;;;;32.33;22.13;;;;;;;;;;6258783;28;20044;-71
2020/12/22 08:05:37;;;;;;;34.60;21.67;;;;;;;;;;6256224;28;20132;-73
2020/12/22 08:08:38;;;;;;;36.60;21.75;;;;;;;;;;6258565;28;20148;-72
2020/12/22 08:11:40;;;;;;;33.40;22.02;;;;;;;;;;6250191;28;20064;-72
2020/12/22 08:14:43;;;;;;;31.42;21.27;;;;;;;;;;6256329;28;20046;-71
2020/12/22 08:17:46;;;;;;;34.78;21.75;;;;;;;;;;6259093;28;20099;-72
2020/12/22 08:20:48;;;;;;;31.58;21.60;;;;;;;;;;6249463;28;20050;-71
2020/12/22 08:23:49;;;;;;;34.45;22.88;;;;;;;;;;6252090;28;20056;-72
2020/12/22 08:26:52;;;;;;;35.15;23.05;;;;;;;;;;6256480;28;20049;-71
2020/12/22 08:29:53;;;;;;;33.38;22.40;;;;;;;;;;6253175;28;20147;-71
2020/12/22 08:32:54;;;;;;;35.72;22.50;;;;;;;;;;6258003;28;20863;-71
2020/12/22 08:35:55;;;;;;;33.20;23.30;;;;;;;;;;6249608;28;20057;-69
2020/12/22 08:39:17;;;;;;;34.65;22.58;;;;;;;;;;6253536;28;20120;-71
2020/12/22 08:42:19;;;;;;;30.13;21.30;;;;;;;;;;6247271;28;20053;-71
2020/12/22 08:45:21;;;;;;;36.38;22.95;;;;;;;;;;6251349;28;20078;-71
2020/12/22 08:48:37;;;;;;;38.88;23.90;;;;;;;;;;6252683;28;20045;-71
2020/12/22 08:51:39;;;;;;;36.95;22.30;;;;;;;;;;6255970;28;20053;-72
2020/12/22 08:54:40;;;;;;;38.22;21.48;;;;;;;;;;6252415;28;20056;-70
2020/12/22 08:57:41;;;;;;;32.45;21.60;;;;;;;;;;6251587;28;20473;-71
2020/12/22 09:00:42;;;;;;;31.45;21.27;;;;;;;;;;6251545;28;20071;-69
2020/12/22 09:03:48;;;;;;;32.30;21.45;;;;;;;;;;6251460;28;20050;-73
2020/12/22 09:06:49;;;;;;;29.42;21.75;;;;;;;;;;6264693;28;20044;-71
2020/12/22 09:09:50;;;;;;;33.60;21.08;;;;;;;;;;6258673;28;20102;-70
2020/12/22 09:12:52;;;;;;;32.13;21.35;;;;;;;;;;6254464;28;20098;-70
2020/12/22 09:15:53;;;;;;;34.25;21.88;;;;;;;;;;6260414;28;20044;-71
2020/12/22 09:19:04;;;;;;;33.38;22.85;;;;;;;;;;6260680;28;20564;-72
2020/12/22 09:22:05;;;;;;;31.38;22.35;;;;;;;;;;6256162;28;20053;-72
2020/12/22 09:25:07;;;;;;;34.55;21.35;;;;;;;;;;6249306;28;20051;-73
2020/12/22 09:28:09;;;;;;;28.25;20.05;;;;;;;;;;6252034;28;20136;-72
2020/12/22 09:31:10;;;;;;;33.47;21.60;;;;;;;;;;6257456;28;20041;-71
2020/12/22 09:34:11;;;;;;;30.40;20.00;;;;;;;;;;6253734;28;20053;-71
2020/12/22 09:37:12;;;;;;;26.95;18.70;;;;;;;;;;6249332;28;20059;-72
2020/12/22 09:40:13;;;;;;;34.30;20.70;;;;;;;;;;6253337;28;20144;-72
2020/12/22 09:43:15;;;;;;;30.42;19.90;;;;;;;;;;5905482;28;9999929;-70
2020/12/22 09:46:16;;;;;;;31.25;19.20;;;;;;;;;;6262262;28;20065;-71
2020/12/22 09:49:18;;;;;;;29.08;19.95;;;;;;;;;;6269359;28;20049;-72
2020/12/22 09:52:19;;;;;;;29.02;20.17;;;;;;;;;;6259929;28;20056;-72
2020/12/22 09:55:20;;;;;;;28.85;20.13;;;;;;;;;;6257755;28;20060;-72
2020/12/22 09:58:22;;;;;;;27.85;19.50;;;;;;;;;;6260748;28;20864;-73
2020/12/22 10:01:24;;;;;;;26.27;19.00;;;;;;;;;;6265315;28;20129;-72
2020/12/22 10:04:25;;;;;;;29.90;19.95;;;;;;;;;;6258986;28;20068;-73
2020/12/22 10:07:26;;;;;;;26.48;19.50;;;;;;;;;;6253852;28;20072;-72
2020/12/22 10:10:27;;;;;;;29.25;19.35;;;;;;;;;;6251341;28;20115;-72
2020/12/22 10:13:29;;;;;;;31.10;20.30;;;;;;;;;;6260829;28;20463;-72
2020/12/22 10:16:30;;;;;;;29.73;19.67;;;;;;;;;;6259675;28;20076;-73
2020/12/22 10:19:31;;;;;;;34.78;21.73;;;;;;;;;;6256969;28;20144;-73
2020/12/22 10:22:32;;;;;;;34.53;21.02;;;;;;;;;;6261735;28;20143;-72
2020/12/22 10:25:33;;;;;;;31.95;20.58;;;;;;;;;;6264413;28;20045;-73
2020/12/22 10:28:36;;;;;;;30.45;20.20;;;;;;;;;;6262693;28;20045;-72
2020/12/22 10:31:37;;;;;;;28.15;19.33;;;;;;;;;;6266199;28;20139;-73
2020/12/22 10:34:38;;;;;;;28.58;19.15;;;;;;;;;;6255937;28;20182;-71
2020/12/22 10:37:39;;;;;;;26.77;19.73;;;;;;;;;;6266048;28;20117;-72
2020/12/22 10:40:40;;;;;;;24.48;18.20;;;;;;;;;;6254686;28;20041;-72
2020/12/22 10:43:42;;;;;;;25.27;17.90;;;;;;;;;;6260605;28;20048;-72
2020/12/22 10:46:46;;;;;;;26.95;19.00;;;;;;;;;;6264762;28;20404;-72
2020/12/22 10:49:48;;;;;;;27.05;18.90;;;;;;;;;;6261026;28;20094;-73
2020/12/22 10:52:49;;;;;;;27.73;19.65;;;;;;;;;;6254697;28;20048;-72
2020/12/22 10:55:50;;;;;;;25.23;18.67;;;;;;;;;;6251686;28;20045;-72
2020/12/22 10:58:52;;;;;;;24.10;16.73;;;;;;;;;;6252562;28;20045;-72
2020/12/22 11:01:53;;;;;;;21.15;15.23;;;;;;;;;;6259097;28;20057;-72
2020/12/22 11:04:55;;;;;;;20.58;14.45;;;;;;;;;;6252667;28;20052;-74
2020/12/22 11:07:56;;;;;;;20.15;15.20;;;;;;;;;;6259049;28;20049;-71
2020/12/22 11:10:57;;;;;;;20.55;15.13;;;;;;;;;;6253570;28;20171;-73
2020/12/22 11:13:58;;;;;;;22.00;15.60;;;;;;;;;;6258161;28;20110;-72
2020/12/22 11:17:00;;;;;;;24.30;16.58;;;;;;;;;;6267184;28;20567;-70
2020/12/22 11:20:01;;;;;;;25.80;17.83;;;;;;;;;;6267549;28;20045;-71
2020/12/22 11:23:02;;;;;;;22.42;17.60;;;;;;;;;;6269120;28;20053;-70
2020/12/22 11:26:03;;;;;;;22.30;17.33;;;;;;;;;;6262354;28;20500;-70
2020/12/22 11:29:05;;;;;;;22.90;17.00;;;;;;;;;;6254186;28;20081;-71
2020/12/22 11:32:06;;;;;;;24.98;16.88;;;;;;;;;;6263253;28;20128;-73
2020/12/22 11:35:09;;;;;;;26.92;16.95;;;;;;;;;;6261652;28;20137;-72
2020/12/22 11:38:10;;;;;;;24.27;16.27;;;;;;;;;;6253165;28;21155;-73
2020/12/22 11:41:11;;;;;;;23.42;16.20;;;;;;;;;;6249780;28;20499;-72
2020/12/22 11:44:13;;;;;;;21.58;15.93;;;;;;;;;;6255168;28;20045;-72
2020/12/22 11:47:14;;;;;;;22.08;16.27;;;;;;;;;;6261107;28;20043;-73
2020/12/22 11:50:16;;;;;;;21.40;16.05;;;;;;;;;;6249070;28;20056;-74
2020/12/22 11:53:17;;;;;;;28.42;16.35;;;;;;;;;;6253416;28;20623;-74
2020/12/22 11:56:18;;;;;;;17.83;14.55;;;;;;;;;;6255360;28;20049;-73
2020/12/22 11:59:19;;;;;;;18.88;14.90;;;;;;;;;;6254199;28;20037;-73
2020/12/22 12:02:20;;;;;;;24.65;15.50;;;;;;;;;;6252209;28;20049;-74
2020/12/22 12:05:21;;;;;;;19.52;15.45;;;;;;;;;;6253572;28;20128;-73
2020/12/22 12:08:23;;;;;;;17.88;14.98;;;;;;;;;;6262235;28;20158;-74
2020/12/22 12:11:24;;;;;;;18.65;15.00;;;;;;;;;;6256553;28;20059;-73
2020/12/22 12:14:26;;;;;;;18.02;14.63;;;;;;;;;;6259130;28;20041;-72
2020/12/22 12:17:27;;;;;;;17.90;15.02;;;;;;;;;;6256207;28;20110;-74
2020/12/22 12:20:28;;;;;;;18.27;14.52;;;;;;;;;;6262765;28;20596;-73
2020/12/22 12:23:29;;;;;;;20.15;15.10;;;;;;;;;;6248803;28;20494;-74
2020/12/22 12:26:30;;;;;;;19.48;15.75;;;;;;;;;;6255293;28;20123;-73
2020/12/22 12:29:32;;;;;;;19.27;15.57;;;;;;;;;;6260383;28;20068;-74
2020/12/22 12:32:33;;;;;;;18.08;15.63;;;;;;;;;;6256017;28;20134;-74
2020/12/22 12:35:34;;;;;;;19.00;15.50;;;;;;;;;;6263405;28;20504;-74
2020/12/22 12:38:35;;;;;;;21.08;16.10;;;;;;;;;;6261199;28;20041;-74
2020/12/22 12:41:36;;;;;;;19.02;15.30;;;;;;;;;;6271273;28;20110;-74
2020/12/22 12:44:38;;;;;;;19.88;15.57;;;;;;;;;;6256567;28;20089;-72
2020/12/22 12:47:39;;;;;;;19.70;15.60;;;;;;;;;;6282086;28;20048;-74
2020/12/22 12:50:40;;;;;;;19.33;15.95;;;;;;;;;;6268847;28;20123;-72
2020/12/22 12:53:41;;;;;;;20.20;17.00;;;;;;;;;;6265906;28;20064;-73
2020/12/22 12:56:42;;;;;;;19.95;15.40;;;;;;;;;;6255988;28;20045;-74
2020/12/22 12:59:45;;;;;;;20.75;15.57;;;;;;;;;;6253967;28;20505;-73
2020/12/22 13:02:46;;;;;;;19.30;15.53;;;;;;;;;;6244546;28;20412;-71
2020/12/22 13:05:47;;;;;;;20.60;15.68;;;;;;;;;;6256412;28;20491;-71
2020/12/22 13:08:48;;;;;;;21.15;16.33;;;;;;;;;;6258613;28;20041;-72
2020/12/22 13:11:50;;;;;;;22.33;16.85;;;;;;;;;;6256755;28;20135;-72
2020/12/22 13:14:52;;;;;;;19.85;15.55;;;;;;;;;;6242118;28;20468;-72
2020/12/22 13:17:53;;;;;;;21.00;17.33;;;;;;;;;;6251955;28;20041;-72
2020/12/22 13:20:54;;;;;;;22.75;16.77;;;;;;;;;;6257427;28;20037;-71
2020/12/22 13:23:55;;;;;;;23.30;16.92;;;;;;;;;;6254680;28;20055;-72
2020/12/22 13:26:56;;;;;;;21.45;16.00;;;;;;;;;;6253315;28;20382;-74
2020/12/22 13:29:58;;;;;;;25.08;17.20;;;;;;;;;;6255245;28;21163;-72
2020/12/22 13:32:59;;;;;;;22.63;16.52;;;;;;;;;;6255258;28;20043;-74
2020/12/22 13:36:01;;;;;;;24.40;16.83;;;;;;;;;;6261139;28;20052;-73
2020/12/22 13:39:02;;;;;;;19.92;16.75;;;;;;;;;;6264741;28;20136;-72
2020/12/22 13:42:04;;;;;;;24.08;16.25;;;;;;;;;;6260599;28;20345;-72
2020/12/22 13:45:06;;;;;;;26.33;19.83;;;;;;;;;;6266209;28;20045;-73
2020/12/22 13:48:07;;;;;;;36.83;25.00;;;;;;;;;;6261382;28;20067;-74
2020/12/22 13:51:13;;;;;;;39.50;25.13;;;;;;;;;;6263088;28;20129;-73
2020/12/22 13:54:14;;;;;;;38.05;25.30;;;;;;;;;;6260227;28;20143;-74
2020/12/22 13:57:15;;;;;;;39.22;24.77;;;;;;;;;;6263310;28;20120;-74
2020/12/22 14:00:17;;;;;;;39.47;25.95;;;;;;;;;;6260650;28;20825;-71
2020/12/22 14:03:18;;;;;;;37.80;24.10;;;;;;;;;;6257796;28;20045;-71
2020/12/22 14:06:23;;;;;;;36.58;24.02;;;;;;;;;;6259553;28;20123;-71
2020/12/22 14:09:24;;;;;;;45.35;27.17;;;;;;;;;;6262932;28;20677;-72
2020/12/22 14:12:25;;;;;;;41.83;27.80;;;;;;;;;;6258961;28;20064;-73
2020/12/22 14:15:27;;;;;;;45.10;27.88;;;;;;;;;;6262319;28;20045;-75
2020/12/22 14:18:29;;;;;;;40.08;27.45;;;;;;;;;;6250618;28;20072;-72
2020/12/22 14:21:30;;;;;;;38.83;27.38;;;;;;;;;;6258299;28;20049;-72
2020/12/22 14:24:31;;;;;;;39.90;27.15;;;;;;;;;;6247805;28;20622;-73
2020/12/22 14:27:32;;;;;;;42.92;28.40;;;;;;;;;;6262550;28;20135;-73
2020/12/22 14:30:34;;;;;;;42.70;27.33;;;;;;;;;;6253682;28;20135;-72
2020/12/22 14:33:35;;;;;;;40.17;27.10;;;;;;;;;;6253949;28;20045;-73
2020/12/22 14:36:36;;;;;;;40.53;28.23;;;;;;;;;;6248743;28;20136;-72
2020/12/22 14:39:37;;;;;;;40.85;27.30;;;;;;;;;;6263117;28;20519;-73
2020/12/22 14:42:38;;;;;;;39.90;27.25;;;;;;;;;;6269533;28;20124;-74
2020/12/22 14:45:40;;;;;;;40.70;28.17;;;;;;;;;;6252117;28;20061;-71
2020/12/22 14:48:42;;;;;;;41.17;27.63;;;;;;;;;;6259507;28;20124;-73
2020/12/22 14:51:43;;;;;;;41.22;29.13;;;;;;;;;;6254031;28;20054;-73
2020/12/22 14:54:44;;;;;;;38.97;27.95;;;;;;;;;;6254514;28;20381;-73
2020/12/22 14:57:45;;;;;;;36.85;26.75;;;;;;;;;;6249235;28;20049;-73
2020/12/22 15:00:48;;;;;;;39.78;26.55;;;;;;;;;;6259591;28;20143;-71
2020/12/22 15:03:49;;;;;;;39.80;26.25;;;;;;;;;;6252644;28;20098;-71
2020/12/22 15:06:50;;;;;;;33.58;24.17;;;;;;;;;;6253229;28;20052;-72
2020/12/22 15:09:51;;;;;;;39.28;24.23;;;;;;;;;;6251067;28;20048;-72
2020/12/22 15:12:52;;;;;;;38.65;24.10;;;;;;;;;;6246986;28;20153;-72
2020/12/22 15:15:54;;;;;;;33.88;24.13;;;;;;;;;;6257151;28;20086;-71
2020/12/22 15:18:55;;;;;;;36.28;24.92;;;;;;;;;;6263756;28;20068;-72
2020/12/22 15:21:56;;;;;;;37.85;23.90;;;;;;;;;;6260653;28;20438;-72
2020/12/22 15:24:57;;;;;;;39.65;25.48;;;;;;;;;;6257894;28;20041;-72
2020/12/22 15:27:58;;;;;;;46.22;25.52;;;;;;;;;;6248651;28;20696;-72
2020/12/22 15:31:00;;;;;;;39.92;26.48;;;;;;;;;;6246211;28;20669;-71
2020/12/22 15:34:01;;;;;;;39.30;26.33;;;;;;;;;;6249607;28;20609;-72
2020/12/22 15:37:02;;;;;;;41.33;26.80;;;;;;;;;;6249575;28;20049;-76
2020/12/22 15:40:03;;;;;;;45.78;28.00;;;;;;;;;;6244164;28;20545;-75
2020/12/22 15:43:04;;;;;;;45.10;28.38;;;;;;;;;;6253239;28;20112;-75
2020/12/22 15:46:11;;;;;;;43.08;27.58;;;;;;;;;;6252388;28;20144;-76
2020/12/22 15:49:12;;;;;;;51.63;28.23;;;;;;;;;;6254912;28;20037;-75
2020/12/22 15:52:13;;;;;;;47.08;29.48;;;;;;;;;;6254680;28;20499;-76
2020/12/22 15:55:15;;;;;;;47.42;29.35;;;;;;;;;;6253961;28;20438;-74
2020/12/22 15:58:17;;;;;;;56.67;29.60;;;;;;;;;;6255065;28;20159;-74
2020/12/22 16:01:19;;;;;;;54.33;31.55;;;;;;;;;;6248886;28;20504;-73
2020/12/22 16:04:24;;;;;;;49.55;29.63;;;;;;;;;;6250196;28;20059;-73
2020/12/22 16:07:25;;;;;;;53.05;30.42;;;;;;;;;;6245248;28;20045;-74
2020/12/22 16:10:26;;;;;;;52.05;30.25;;;;;;;;;;6262776;28;20040;-73
2020/12/22 16:13:28;;;;;;;51.30;29.33;;;;;;;;;;6251531;28;20061;-74
2020/12/22 16:16:30;;;;;;;52.33;30.27;;;;;;;;;;6258810;28;20052;-73
2020/12/22 16:19:31;;;;;;;51.45;30.83;;;;;;;;;;6258998;28;20056;-73
2020/12/22 16:22:32;;;;;;;55.35;31.67;;;;;;;;;;6254515;28;20066;-72
2020/12/22 16:25:34;;;;;;;51.92;31.00;;;;;;;;;;6246784;28;20049;-74
2020/12/22 16:28:35;;;;;;;52.08;31.67;;;;;;;;;;6252849;28;20461;-73
2020/12/22 16:31:37;;;;;;;58.00;32.88;;;;;;;;;;6258658;28;20132;-71
2020/12/22 16:34:38;;;;;;;62.28;33.97;;;;;;;;;;6254190;28;20145;-72
2020/12/22 16:37:39;;;;;;;59.42;32.90;;;;;;;;;;6246097;28;20041;-72
2020/12/22 16:40:40;;;;;;;62.22;35.35;;;;;;;;;;6244719;28;20044;-73
2020/12/22 16:43:41;;;;;;;61.50;36.08;;;;;;;;;;6248545;28;20052;-72
2020/12/22 16:46:43;;;;;;;64.80;38.80;;;;;;;;;;6243653;28;20057;-72
2020/12/22 16:49:44;;;;;;;74.22;38.97;;;;;;;;;;6245555;28;20050;-72
2020/12/22 16:52:45;;;;;;;69.28;36.70;;;;;;;;;;6247373;28;20049;-73
2020/12/22 16:55:46;;;;;;;69.72;37.92;;;;;;;;;;6244408;28;20530;-73
2020/12/22 16:58:47;;;;;;;70.75;38.25;;;;;;;;;;6250855;28;20049;-73
2020/12/22 17:01:49;;;;;;;69.28;36.53;;;;;;;;;;6253544;28;20106;-73
2020/12/22 17:04:50;;;;;;;70.95;37.47;;;;;;;;;;6253369;28;20042;-74
2020/12/22 17:07:51;;;;;;;68.85;37.22;;;;;;;;;;6251643;28;21928;-75
2020/12/22 17:10:52;;;;;;;65.65;37.30;;;;;;;;;;6249056;28;20576;-73
2020/12/22 17:13:53;;;;;;;68.60;36.75;;;;;;;;;;6261981;28;20763;-72
2020/12/22 17:16:55;;;;;;;67.28;37.35;;;;;;;;;;6248910;28;20110;-72
2020/12/22 17:19:56;;;;;;;68.80;36.88;;;;;;;;;;6252832;28;20062;-74
2020/12/22 17:22:58;;;;;;;60.08;35.92;;;;;;;;;;5894240;28;10000576;-73
2020/12/22 17:25:59;;;;;;;63.25;34.92;;;;;;;;;;6256993;28;20048;-73
2020/12/22 17:29:00;;;;;;;66.18;36.03;;;;;;;;;;6250301;28;20053;-73
2020/12/22 17:32:07;;;;;;;66.10;36.85;;;;;;;;;;6253127;28;20055;-73
2020/12/22 17:35:08;;;;;;;66.78;35.88;;;;;;;;;;6243192;28;20507;-73
2020/12/22 17:38:09;;;;;;;60.88;35.97;;;;;;;;;;6249722;28;20041;-73